sensor_id;sensor_type;location;lat;lon;timestamp;P1;durP1;ratioP1;P2;durP2;ratioP2
19223;SDS011;9746;47.180;9.776;2024-01-16T10:11:58;0.30;;;0.30;;
19223;SDS011;9746;47.180;9.776;2024-01-16T10:14:26;0.30;;;0.30;;
19223;SDS011;9746;47.180;9.776;2024-01-16T10:16:55;0.30;;;0.30;;
19223;SDS011;9746;47.180;9.776;2024-01-16T10:19:28;0.30;;;0.30;;
19223;SDS011;9746;47.180;9.776;2024-01-16T10:22:06;0.30;;;0.30;;
19223;SDS011;9746;47.180;9.776;2024-01-16T10:24:33;0.23;;;0.23;;
19223;SDS011;9746;47.180;9.776;2024-01-16T10:29:33;0.30;;;0.30;;
19223;SDS011;9746;47.180;9.776;2024-01-16T10:34:35;0.30;;;0.30;;
19223;SDS011;9746;47.180;9.776;2024-01-16T10:37:03;0.20;;;0.20;;
19223;SDS011;9746;47.180;9.776;2024-01-16T10:39:30;0.30;;;0.30;;
19223;SDS011;9746;47.180;9.776;2024-01-16T10:42:12;0.20;;;0.20;;
19223;SDS011;9746;47.180;9.776;2024-01-16T10:44:52;0.30;;;0.30;;
19223;SDS011;9746;47.180;9.776;2024-01-16T10:50:02;0.30;;;0.30;;
19223;SDS011;9746;47.180;9.776;2024-01-16T10:52:34;0.30;;;0.30;;
19223;SDS011;9746;47.180;9.776;2024-01-16T10:55:07;0.30;;;0.30;;
19223;SDS011;9746;47.180;9.776;2024-01-16T11:00:08;0.30;;;0.30;;
19223;SDS011;9746;47.180;9.776;2024-01-16T11:02:54;0.30;;;0.30;;
19223;SDS011;9746;47.180;9.776;2024-01-16T11:05:32;0.27;;;0.27;;
19223;SDS011;9746;47.180;9.776;2024-01-16T11:08:14;0.20;;;0.20;;
19223;SDS011;9746;47.180;9.776;2024-01-16T11:10:43;0.30;;;0.30;;
19223;SDS011;9746;47.180;9.776;2024-01-16T11:13:16;0.20;;;0.20;;
19223;SDS011;9746;47.180;9.776;2024-01-16T11:15:45;0.20;;;0.20;;
19223;SDS011;9746;47.180;9.776;2024-01-16T11:18:17;0.30;;;0.30;;
19223;SDS011;9746;47.180;9.776;2024-01-16T11:20:45;0.23;;;0.23;;
19223;SDS011;9746;47.180;9.776;2024-01-16T11:23:13;0.30;;;0.30;;
19223;SDS011;9746;47.180;9.776;2024-01-16T11:25:41;0.30;;;0.30;;
19223;SDS011;9746;47.180;9.776;2024-01-16T11:28:28;0.20;;;0.20;;
19223;SDS011;9746;47.180;9.776;2024-01-16T11:30:56;0.20;;;0.20;;
19223;SDS011;9746;47.180;9.776;2024-01-16T11:33:43;0.20;;;0.20;;
19223;SDS011;9746;47.180;9.776;2024-01-16T11:39:11;0.20;;;0.20;;
19223;SDS011;9746;47.180;9.776;2024-01-16T11:41:50;0.20;;;0.20;;
19223;SDS011;9746;47.180;9.776;2024-01-16T11:44:43;0.20;;;0.20;;
19223;SDS011;9746;47.180;9.776;2024-01-16T11:47:16;0.30;;;0.30;;
19223;SDS011;9746;47.180;9.776;2024-01-16T11:52:38;0.30;;;0.30;;
19223;SDS011;9746;47.180;9.776;2024-01-16T12:01:03;0.20;;;0.20;;
19223;SDS011;9746;47.180;9.776;2024-01-16T12:03:39;0.20;;;0.20;;
19223;SDS011;9746;47.180;9.776;2024-01-16T12:06:08;0.20;;;0.20;;
19223;SDS011;9746;47.180;9.776;2024-01-16T12:08:37;0.20;;;0.20;;
19223;SDS011;9746;47.180;9.776;2024-01-16T12:11:04;0.23;;;0.23;;
19223;SDS011;9746;47.180;9.776;2024-01-16T12:13:35;0.30;;;0.30;;
19223;SDS011;9746;47.180;9.776;2024-01-16T12:16:04;0.20;;;0.20;;
19223;SDS011;9746;47.180;9.776;2024-01-16T12:18:34;0.20;;;0.20;;
19223;SDS011;9746;47.180;9.776;2024-01-16T12:21:07;0.20;;;0.20;;
19223;SDS011;9746;47.180;9.776;2024-01-16T12:26:25;0.20;;;0.20;;
19223;SDS011;9746;47.180;9.776;2024-01-16T12:29:04;0.20;;;0.20;;
19223;SDS011;9746;47.180;9.776;2024-01-16T12:31:34;0.30;;;0.30;;
19223;SDS011;9746;47.180;9.776;2024-01-16T12:34:05;0.30;;;0.30;;
19223;SDS011;9746;47.180;9.776;2024-01-16T12:36:34;0.30;;;0.30;;
19223;SDS011;9746;47.180;9.776;2024-01-16T12:39:03;0.20;;;0.20;;
19223;SDS011;9746;47.180;9.776;2024-01-16T12:41:32;0.20;;;0.20;;
19223;SDS011;9746;47.180;9.776;2024-01-16T12:44:06;0.20;;;0.20;;
19223;SDS011;9746;47.180;9.776;2024-01-16T12:46:35;0.30;;;0.30;;
19223;SDS011;9746;47.180;9.776;2024-01-16T12:49:05;0.20;;;0.20;;
19223;SDS011;9746;47.180;9.776;2024-01-16T12:51:33;0.30;;;0.30;;
19223;SDS011;9746;47.180;9.776;2024-01-16T12:56:57;0.20;;;0.20;;
19223;SDS011;9746;47.180;9.776;2024-01-16T12:59:27;0.20;;;0.20;;
19223;SDS011;9746;47.180;9.776;2024-01-16T13:01:57;0.20;;;0.20;;
19223;SDS011;9746;47.180;9.776;2024-01-16T13:04:26;0.20;;;0.20;;
19223;SDS011;9746;47.180;9.776;2024-01-16T13:07:01;0.20;;;0.20;;
19223;SDS011;9746;47.180;9.776;2024-01-16T13:09:30;0.20;;;0.20;;
19223;SDS011;9746;47.180;9.776;2024-01-16T13:11:58;0.20;;;0.20;;
19223;SDS011;9746;47.180;9.776;2024-01-16T13:14:26;0.20;;;0.20;;
19223;SDS011;9746;47.180;9.776;2024-01-16T13:16:55;0.20;;;0.20;;
19223;SDS011;9746;47.180;9.776;2024-01-16T13:19:26;0.20;;;0.20;;
19223;SDS011;9746;47.180;9.776;2024-01-16T13:21:58;0.20;;;0.20;;
19223;SDS011;9746;47.180;9.776;2024-01-16T13:24:30;0.20;;;0.20;;
19223;SDS011;9746;47.180;9.776;2024-01-16T13:26:58;0.20;;;0.20;;
19223;SDS011;9746;47.180;9.776;2024-01-16T13:32:02;0.20;;;0.20;;
19223;SDS011;9746;47.180;9.776;2024-01-16T13:34:38;0.20;;;0.20;;
19223;SDS011;9746;47.180;9.776;2024-01-16T13:37:11;0.20;;;0.20;;
19223;SDS011;9746;47.180;9.776;2024-01-16T13:39:46;0.20;;;0.20;;
19223;SDS011;9746;47.180;9.776;2024-01-16T13:42:14;0.30;;;0.30;;
19223;SDS011;9746;47.180;9.776;2024-01-16T13:44:46;0.23;;;0.23;;
19223;SDS011;9746;47.180;9.776;2024-01-16T13:47:16;0.30;;;0.30;;
19223;SDS011;9746;47.180;9.776;2024-01-16T13:49:47;0.20;;;0.20;;
19223;SDS011;9746;47.180;9.776;2024-01-16T13:52:14;0.30;;;0.30;;
19223;SDS011;9746;47.180;9.776;2024-01-16T13:54:44;0.20;;;0.20;;
19223;SDS011;9746;47.180;9.776;2024-01-16T13:57:11;0.30;;;0.30;;
19223;SDS011;9746;47.180;9.776;2024-01-16T14:02:09;0.30;;;0.30;;
19223;SDS011;9746;47.180;9.776;2024-01-16T14:04:38;0.30;;;0.30;;
19223;SDS011;9746;47.180;9.776;2024-01-16T14:07:06;0.30;;;0.30;;
19223;SDS011;9746;47.180;9.776;2024-01-16T14:09:36;0.30;;;0.30;;
19223;SDS011;9746;47.180;9.776;2024-01-16T14:12:04;0.30;;;0.30;;
19223;SDS011;9746;47.180;9.776;2024-01-16T14:14:35;0.30;;;0.30;;
19223;SDS011;9746;47.180;9.776;2024-01-16T14:17:04;0.30;;;0.30;;
19223;SDS011;9746;47.180;9.776;2024-01-16T14:19:34;0.30;;;0.30;;
19223;SDS011;9746;47.180;9.776;2024-01-16T14:22:03;0.37;;;0.37;;
19223;SDS011;9746;47.180;9.776;2024-01-16T14:24:32;0.30;;;0.30;;
19223;SDS011;9746;47.180;9.776;2024-01-16T14:26:59;0.30;;;0.30;;
19223;SDS011;9746;47.180;9.776;2024-01-16T14:29:28;0.40;;;0.40;;
19223;SDS011;9746;47.180;9.776;2024-01-16T14:31:55;0.30;;;0.30;;
19223;SDS011;9746;47.180;9.776;2024-01-16T14:34:24;0.40;;;0.40;;
19223;SDS011;9746;47.180;9.776;2024-01-16T14:36:53;0.30;;;0.30;;
19223;SDS011;9746;47.180;9.776;2024-01-16T14:39:23;0.30;;;0.30;;
19223;SDS011;9746;47.180;9.776;2024-01-16T14:41:51;0.30;;;0.30;;
19223;SDS011;9746;47.180;9.776;2024-01-16T14:44:18;0.40;;;0.40;;
19223;SDS011;9746;47.180;9.776;2024-01-16T14:46:46;0.30;;;0.30;;
19223;SDS011;9746;47.180;9.776;2024-01-16T14:49:15;0.40;;;0.40;;
19223;SDS011;9746;47.180;9.776;2024-01-16T14:51:43;0.30;;;0.30;;
19223;SDS011;9746;47.180;9.776;2024-01-16T14:54:10;0.40;;;0.40;;
19223;SDS011;9746;47.180;9.776;2024-01-16T14:56:39;0.40;;;0.40;;
19223;SDS011;9746;47.180;9.776;2024-01-16T14:59:07;0.40;;;0.40;;
19223;SDS011;9746;47.180;9.776;2024-01-16T15:01:35;0.40;;;0.40;;
19223;SDS011;9746;47.180;9.776;2024-01-16T15:04:04;0.30;;;0.30;;
19223;SDS011;9746;47.180;9.776;2024-01-16T15:06:34;0.30;;;0.30;;
19223;SDS011;9746;47.180;9.776;2024-01-16T15:09:02;0.30;;;0.30;;
19223;SDS011;9746;47.180;9.776;2024-01-16T15:11:31;0.30;;;0.30;;
19223;SDS011;9746;47.180;9.776;2024-01-16T15:14:00;0.30;;;0.30;;
19223;SDS011;9746;47.180;9.776;2024-01-16T15:16:29;0.40;;;0.40;;
19223;SDS011;9746;47.180;9.776;2024-01-16T15:18:57;0.30;;;0.30;;
19223;SDS011;9746;47.180;9.776;2024-01-16T15:21:31;0.40;;;0.40;;
19223;SDS011;9746;47.180;9.776;2024-01-16T15:24:02;0.30;;;0.30;;
19223;SDS011;9746;47.180;9.776;2024-01-16T15:26:34;0.40;;;0.40;;
19223;SDS011;9746;47.180;9.776;2024-01-16T15:29:21;0.30;;;0.30;;
19223;SDS011;9746;47.180;9.776;2024-01-16T15:31:57;0.27;;;0.27;;
19223;SDS011;9746;47.180;9.776;2024-01-16T15:34:27;0.30;;;0.30;;
19223;SDS011;9746;47.180;9.776;2024-01-16T15:36:57;0.30;;;0.30;;
19223;SDS011;9746;47.180;9.776;2024-01-16T15:39:41;0.40;;;0.40;;
19223;SDS011;9746;47.180;9.776;2024-01-16T15:42:11;0.33;;;0.33;;
19223;SDS011;9746;47.180;9.776;2024-01-16T15:44:41;0.40;;;0.40;;
19223;SDS011;9746;47.180;9.776;2024-01-16T15:47:21;0.30;;;0.30;;
19223;SDS011;9746;47.180;9.776;2024-01-16T15:49:52;0.40;;;0.40;;
19223;SDS011;9746;47.180;9.776;2024-01-16T15:52:21;0.47;;;0.47;;
19223;SDS011;9746;47.180;9.776;2024-01-16T15:54:48;0.40;;;0.40;;
19223;SDS011;9746;47.180;9.776;2024-01-16T15:57:16;0.33;;;0.33;;
19223;SDS011;9746;47.180;9.776;2024-01-16T15:59:47;0.40;;;0.40;;
19223;SDS011;9746;47.180;9.776;2024-01-16T16:02:15;0.40;;;0.40;;
19223;SDS011;9746;47.180;9.776;2024-01-16T16:04:49;0.70;;;0.70;;
19223;SDS011;9746;47.180;9.776;2024-01-16T16:07:16;0.40;;;0.40;;
19223;SDS011;9746;47.180;9.776;2024-01-16T16:09:46;0.40;;;0.40;;
19223;SDS011;9746;47.180;9.776;2024-01-16T16:12:14;0.40;;;0.40;;
19223;SDS011;9746;47.180;9.776;2024-01-16T16:14:43;0.40;;;0.40;;
19223;SDS011;9746;47.180;9.776;2024-01-16T16:17:13;0.40;;;0.40;;
19223;SDS011;9746;47.180;9.776;2024-01-16T16:19:47;0.43;;;0.43;;
19223;SDS011;9746;47.180;9.776;2024-01-16T16:22:15;0.30;;;0.30;;
19223;SDS011;9746;47.180;9.776;2024-01-16T16:24:43;0.40;;;0.40;;
19223;SDS011;9746;47.180;9.776;2024-01-16T16:27:21;0.37;;;0.37;;
19223;SDS011;9746;47.180;9.776;2024-01-16T16:29:57;0.43;;;0.43;;
19223;SDS011;9746;47.180;9.776;2024-01-16T16:32:26;0.40;;;0.40;;
19223;SDS011;9746;47.180;9.776;2024-01-16T16:37:32;0.53;;;0.53;;
19223;SDS011;9746;47.180;9.776;2024-01-16T16:40:01;0.40;;;0.40;;
19223;SDS011;9746;47.180;9.776;2024-01-16T16:42:30;0.40;;;0.40;;
19223;SDS011;9746;47.180;9.776;2024-01-16T16:44:58;0.33;;;0.33;;
19223;SDS011;9746;47.180;9.776;2024-01-16T16:47:27;0.40;;;0.40;;
19223;SDS011;9746;47.180;9.776;2024-01-16T16:49:54;0.33;;;0.33;;
19223;SDS011;9746;47.180;9.776;2024-01-16T16:52:22;0.40;;;0.40;;
19223;SDS011;9746;47.180;9.776;2024-01-16T16:54:50;0.60;;;0.60;;
19223;SDS011;9746;47.180;9.776;2024-01-16T16:57:17;0.50;;;0.50;;
19223;SDS011;9746;47.180;9.776;2024-01-16T16:59:45;0.43;;;0.43;;
19223;SDS011;9746;47.180;9.776;2024-01-16T17:02:12;0.60;;;0.60;;
19223;SDS011;9746;47.180;9.776;2024-01-16T17:04:41;0.53;;;0.53;;
19223;SDS011;9746;47.180;9.776;2024-01-16T17:07:10;0.50;;;0.50;;
19223;SDS011;9746;47.180;9.776;2024-01-16T17:09:38;0.40;;;0.40;;
19223;SDS011;9746;47.180;9.776;2024-01-16T17:12:08;0.30;;;0.30;;
19223;SDS011;9746;47.180;9.776;2024-01-16T17:14:36;0.30;;;0.30;;
19223;SDS011;9746;47.180;9.776;2024-01-16T17:17:03;0.50;;;0.50;;
19223;SDS011;9746;47.180;9.776;2024-01-16T17:19:31;0.40;;;0.40;;
19223;SDS011;9746;47.180;9.776;2024-01-16T17:22:09;0.50;;;0.50;;
19223;SDS011;9746;47.180;9.776;2024-01-16T17:24:38;0.30;;;0.30;;
19223;SDS011;9746;47.180;9.776;2024-01-16T17:29:53;0.40;;;0.40;;
19223;SDS011;9746;47.180;9.776;2024-01-16T17:32:21;0.40;;;0.40;;
19223;SDS011;9746;47.180;9.776;2024-01-16T17:34:48;0.40;;;0.40;;
19223;SDS011;9746;47.180;9.776;2024-01-16T17:37:17;0.50;;;0.50;;
19223;SDS011;9746;47.180;9.776;2024-01-16T17:39:45;0.30;;;0.30;;
19223;SDS011;9746;47.180;9.776;2024-01-16T17:42:15;0.40;;;0.40;;
19223;SDS011;9746;47.180;9.776;2024-01-16T17:44:46;0.50;;;0.50;;
19223;SDS011;9746;47.180;9.776;2024-01-16T17:47:15;0.40;;;0.40;;
19223;SDS011;9746;47.180;9.776;2024-01-16T17:49:43;0.50;;;0.50;;
19223;SDS011;9746;47.180;9.776;2024-01-16T17:52:27;0.50;;;0.50;;
19223;SDS011;9746;47.180;9.776;2024-01-16T17:54:56;0.60;;;0.60;;
19223;SDS011;9746;47.180;9.776;2024-01-16T17:57:26;0.40;;;0.40;;
19223;SDS011;9746;47.180;9.776;2024-01-16T17:59:55;0.43;;;0.43;;
19223;SDS011;9746;47.180;9.776;2024-01-16T18:02:28;0.40;;;0.40;;
19223;SDS011;9746;47.180;9.776;2024-01-16T18:04:56;0.40;;;0.40;;
19223;SDS011;9746;47.180;9.776;2024-01-16T18:07:23;0.50;;;0.50;;
19223;SDS011;9746;47.180;9.776;2024-01-16T18:09:52;0.40;;;0.40;;
19223;SDS011;9746;47.180;9.776;2024-01-16T18:12:19;0.50;;;0.50;;
19223;SDS011;9746;47.180;9.776;2024-01-16T18:14:52;0.50;;;0.50;;
19223;SDS011;9746;47.180;9.776;2024-01-16T18:17:20;0.40;;;0.40;;
19223;SDS011;9746;47.180;9.776;2024-01-16T18:19:47;0.40;;;0.40;;
19223;SDS011;9746;47.180;9.776;2024-01-16T18:22:24;0.40;;;0.40;;
19223;SDS011;9746;47.180;9.776;2024-01-16T18:24:53;0.47;;;0.47;;
19223;SDS011;9746;47.180;9.776;2024-01-16T18:27:21;0.50;;;0.50;;
19223;SDS011;9746;47.180;9.776;2024-01-16T18:29:48;0.63;;;0.63;;
19223;SDS011;9746;47.180;9.776;2024-01-16T18:32:17;0.40;;;0.40;;
19223;SDS011;9746;47.180;9.776;2024-01-16T18:34:44;0.50;;;0.50;;
19223;SDS011;9746;47.180;9.776;2024-01-16T18:37:12;0.40;;;0.40;;
19223;SDS011;9746;47.180;9.776;2024-01-16T18:39:40;0.40;;;0.40;;
19223;SDS011;9746;47.180;9.776;2024-01-16T18:42:16;0.40;;;0.40;;
19223;SDS011;9746;47.180;9.776;2024-01-16T18:44:47;0.50;;;0.50;;
19223;SDS011;9746;47.180;9.776;2024-01-16T18:47:15;0.40;;;0.40;;
19223;SDS011;9746;47.180;9.776;2024-01-16T18:49:46;0.40;;;0.40;;
19223;SDS011;9746;47.180;9.776;2024-01-16T18:52:20;0.40;;;0.40;;
19223;SDS011;9746;47.180;9.776;2024-01-16T18:54:48;0.37;;;0.37;;
19223;SDS011;9746;47.180;9.776;2024-01-16T18:57:20;0.40;;;0.40;;
19223;SDS011;9746;47.180;9.776;2024-01-16T18:59:48;0.40;;;0.40;;
19223;SDS011;9746;47.180;9.776;2024-01-16T19:02:16;0.30;;;0.30;;
19223;SDS011;9746;47.180;9.776;2024-01-16T19:04:44;0.67;;;0.67;;
19223;SDS011;9746;47.180;9.776;2024-01-16T19:07:13;0.50;;;0.50;;
19223;SDS011;9746;47.180;9.776;2024-01-16T19:09:42;0.47;;;0.47;;
19223;SDS011;9746;47.180;9.776;2024-01-16T19:12:11;0.50;;;0.50;;
19223;SDS011;9746;47.180;9.776;2024-01-16T19:14:40;0.50;;;0.50;;
19223;SDS011;9746;47.180;9.776;2024-01-16T19:17:09;0.40;;;0.40;;
19223;SDS011;9746;47.180;9.776;2024-01-16T19:19:37;0.40;;;0.40;;
19223;SDS011;9746;47.180;9.776;2024-01-16T19:22:04;0.40;;;0.40;;
19223;SDS011;9746;47.180;9.776;2024-01-16T19:24:35;0.50;;;0.50;;
19223;SDS011;9746;47.180;9.776;2024-01-16T19:27:05;0.40;;;0.40;;
19223;SDS011;9746;47.180;9.776;2024-01-16T19:29:33;0.60;;;0.60;;
19223;SDS011;9746;47.180;9.776;2024-01-16T19:32:03;0.40;;;0.40;;
19223;SDS011;9746;47.180;9.776;2024-01-16T19:34:30;0.40;;;0.40;;
19223;SDS011;9746;47.180;9.776;2024-01-16T19:36:58;0.50;;;0.50;;
19223;SDS011;9746;47.180;9.776;2024-01-16T19:39:26;0.60;;;0.60;;
19223;SDS011;9746;47.180;9.776;2024-01-16T19:41:59;0.40;;;0.40;;
19223;SDS011;9746;47.180;9.776;2024-01-16T19:44:27;0.47;;;0.47;;
19223;SDS011;9746;47.180;9.776;2024-01-16T19:49:42;0.40;;;0.40;;
19223;SDS011;9746;47.180;9.776;2024-01-16T19:52:11;0.50;;;0.50;;
19223;SDS011;9746;47.180;9.776;2024-01-16T19:54:40;0.40;;;0.40;;
19223;SDS011;9746;47.180;9.776;2024-01-16T19:57:09;0.30;;;0.30;;
19223;SDS011;9746;47.180;9.776;2024-01-16T19:59:37;0.40;;;0.40;;
19223;SDS011;9746;47.180;9.776;2024-01-16T20:02:05;0.30;;;0.30;;
19223;SDS011;9746;47.180;9.776;2024-01-16T20:04:34;0.40;;;0.40;;
19223;SDS011;9746;47.180;9.776;2024-01-16T20:07:03;0.40;;;0.40;;
19223;SDS011;9746;47.180;9.776;2024-01-16T20:09:31;0.40;;;0.40;;
19223;SDS011;9746;47.180;9.776;2024-01-16T20:11:59;0.50;;;0.50;;
19223;SDS011;9746;47.180;9.776;2024-01-16T20:14:27;0.37;;;0.37;;
19223;SDS011;9746;47.180;9.776;2024-01-16T20:16:54;0.47;;;0.47;;
19223;SDS011;9746;47.180;9.776;2024-01-16T20:19:24;0.30;;;0.30;;
19223;SDS011;9746;47.180;9.776;2024-01-16T20:22:02;0.40;;;0.40;;
19223;SDS011;9746;47.180;9.776;2024-01-16T20:24:29;0.47;;;0.47;;
19223;SDS011;9746;47.180;9.776;2024-01-16T20:27:03;0.40;;;0.40;;
19223;SDS011;9746;47.180;9.776;2024-01-16T20:29:32;0.40;;;0.40;;
19223;SDS011;9746;47.180;9.776;2024-01-16T20:32:00;0.40;;;0.40;;
19223;SDS011;9746;47.180;9.776;2024-01-16T20:34:29;0.37;;;0.37;;
19223;SDS011;9746;47.180;9.776;2024-01-16T20:37:03;0.50;;;0.50;;
19223;SDS011;9746;47.180;9.776;2024-01-16T20:39:30;0.30;;;0.30;;
19223;SDS011;9746;47.180;9.776;2024-01-16T20:41:59;0.40;;;0.40;;
19223;SDS011;9746;47.180;9.776;2024-01-16T20:44:27;0.50;;;0.50;;
19223;SDS011;9746;47.180;9.776;2024-01-16T20:46:58;0.40;;;0.40;;
19223;SDS011;9746;47.180;9.776;2024-01-16T20:49:26;0.30;;;0.30;;
19223;SDS011;9746;47.180;9.776;2024-01-16T20:51:54;0.40;;;0.40;;
19223;SDS011;9746;47.180;9.776;2024-01-16T20:54:24;0.30;;;0.30;;
